首页
METAR-TAF:

METAR-TAF

机场 :

萨瓦德尔, 西班牙

纬度: 41-31N, 经度: 002-06E, 海拔: 250米

当前天气观测

该预报发布于15分钟前的21:00 UTC
风速3节,风向西
温度 9°C
湿度 71%
气压 1006 hPa
能见度10公里或以上
1500米以下无云,无积雨云

METAR: LELL 122100Z AUTO 28003KT CAVOK 09/04 Q1006

时间: 22:15 (21:15 UTC)

预报

该预报发布于7小时和15分钟前的14:00 UTC
预报有效从12日的 15点(UTC)到 13日的 15点(UTC)
风速10节,风向西
能见度10公里或以上
少量云层高于4000英尺
成为
从 12日的 17点(UTC)到 12日的 19点(UTC)
风速4节,风向多变
短暂存在
从 12日的 23点(UTC)到 13日的 05点(UTC)
风速7节,风向西转西北
几率 40% :
短暂存在
从 13日的 08点(UTC)到 13日的 13点(UTC)
能見度: 4000
多云层高于1400英尺
多云层高于3000英尺

TAF: LELL 121400Z 1215/1315 26010KT 9999 FEW040 TX14/1313Z TN05/1306Z BECMG 1217/1219 VRB04KT TEMPO 1223/1305 30007KT PROB40 TEMPO 1308/1313 4000 RA BKN014 BKN030

超过4000个机场的气象观测和天气预报(METAR&TAF报告)。

可查询的气象台以黄色和红色小点在地图上表示。

将鼠标移到小点上方,可查看气象台名称。

然后点击查看天气观测和预报。

如需切换地图:点击带黑十字的绿色按钮放大地图;点击带横线的绿色按钮缩小地图;或者点击绿色箭头查看邻近地区的地图。


METAR-TAF: